createdAt,value
2023-02-23T00:05:48.452Z,19.5
2023-02-23T00:20:57.345Z,24.1
2023-02-23T00:36:06.771Z,19.3
2023-02-23T00:51:16.815Z,24
2023-02-23T01:06:27.239Z,24.9
2023-02-23T01:21:36.771Z,30
2023-02-23T01:36:46.012Z,31.4
2023-02-23T01:51:55.154Z,36.6
2023-02-23T02:07:04.696Z,38.4
2023-02-23T02:22:14.297Z,42
2023-02-23T02:37:24.191Z,47
2023-02-23T02:52:33.820Z,52.3
2023-02-23T03:07:43.923Z,58.3
2023-02-23T03:22:53.855Z,63.2
2023-02-23T03:38:03.632Z,74.5
2023-02-23T03:53:13.755Z,67.7
2023-02-23T04:08:24.183Z,67
2023-02-23T04:23:33.560Z,79.8
2023-02-23T04:38:43.176Z,71.8
2023-02-23T04:53:53.059Z,76.3
2023-02-23T05:09:02.180Z,69.2
2023-02-23T05:24:11.634Z,69.7
2023-02-23T05:39:22.425Z,69.8
2023-02-23T05:54:32.188Z,74.3
2023-02-23T06:09:45.036Z,80.5
2023-02-23T06:24:55.446Z,80.2
2023-02-23T06:40:05.246Z,90.6
2023-02-23T06:55:15.127Z,87.7
2023-02-23T07:10:24.800Z,98.6
2023-02-23T07:25:34.896Z,92.8
2023-02-23T07:40:44.657Z,89.9
2023-02-23T07:55:54.630Z,80.4
2023-02-23T08:11:04.241Z,85.2
2023-02-23T08:26:14.672Z,83.3
2023-02-23T08:41:24.161Z,93.7
2023-02-23T08:56:33.014Z,103.5
2023-02-23T09:11:42.663Z,105.9
2023-02-23T09:26:52.829Z,99.5
2023-02-23T09:42:02.806Z,94.8
2023-02-23T09:57:12.093Z,88.2
2023-02-23T10:12:21.657Z,80.5
2023-02-23T10:27:31.590Z,72.1
2023-02-23T10:42:41.551Z,59
2023-02-23T10:57:51.039Z,53.2
2023-02-23T11:13:00.670Z,45.3
2023-02-23T11:28:11.010Z,47
2023-02-23T11:43:21.371Z,54.2
2023-02-23T11:58:31.317Z,60.6
2023-02-23T12:17:28.779Z,71
2023-02-23T12:32:40.853Z,65.3
2023-02-23T12:47:50.590Z,59.8
2023-02-23T13:03:00.495Z,67
2023-02-23T13:18:10.444Z,58.9
2023-02-23T13:33:22.056Z,60.2
2023-02-23T13:48:56.424Z,60.5
2023-02-23T14:04:08.480Z,55.8
2023-02-23T14:19:19.293Z,58.6
2023-02-23T14:34:28.936Z,57.5
2023-02-23T14:49:38.508Z,54.2
2023-02-23T15:04:47.928Z,64
2023-02-23T15:20:17.280Z,54.6
2023-02-23T15:35:27.266Z,56.9
2023-02-23T15:50:37.883Z,56
2023-02-23T16:05:48.480Z,64.5
2023-02-23T16:20:58.371Z,55.2
2023-02-23T16:36:08.031Z,61.5
2023-02-23T16:51:21.118Z,45.6
2023-02-23T17:06:30.646Z,95.9
2023-02-23T17:21:40.884Z,90.3
2023-02-23T17:36:50.492Z,92.8
2023-02-23T17:52:00.451Z,104.7
2023-02-23T18:07:09.941Z,96.7
2023-02-23T18:22:20.119Z,101.7
2023-02-23T18:37:30.131Z,97.8
2023-02-23T18:52:40.439Z,103
2023-02-23T19:07:49.942Z,27
2023-02-23T19:22:59.847Z,14.8
2023-02-23T19:38:09.336Z,12.7
2023-02-23T19:53:20.044Z,19.4
2023-02-23T20:08:29.618Z,18.9
2023-02-23T20:23:39.374Z,26
2023-02-23T20:38:49.072Z,18.6
2023-02-23T20:53:59.416Z,23.1
2023-02-23T21:09:09.317Z,25.3
2023-02-23T21:24:20.142Z,23.2
2023-02-23T21:39:29.540Z,23.2
2023-02-23T21:54:38.869Z,26.7
2023-02-23T22:09:48.787Z,22.7
2023-02-23T22:24:58.238Z,17.2
2023-02-23T22:40:08.098Z,16
2023-02-23T22:55:17.432Z,36
2023-02-23T23:10:28.201Z,16.2
2023-02-23T23:25:38.227Z,23.1
2023-02-23T23:40:47.851Z,21.4
2023-02-23T23:55:57.357Z,12.1
